»·PEaware :: SKY5 KABQ-KSKX

SKY5 :: KABQ-KSKX

FLIGHT INFORMATION

Flight Status: Arrived
Operator:
Skymark Airlines
More flights by this operator :: More flights under this callsign
Pilot: Utku A. (15598)
Aircraft: CESSNA T210 TURBO CENTURION
(T210)
More flights by this aircraft type
Origin: KABQ Albuquerque Intl Sunport
United States
Destination: KSKX Taos Regl
United States
More flights between these airports :: More routes between these airports
Route: +ABQ3 V263 SAF V83 TAS
File this flight plan on PilotEdge
Remarks: SKYHIGH CHARTERS MISSION#2 LEG1
Altitude:
(Current/Filed)
11,000ft
Speed:
(Current/Filed)
190kts
Departed: 14-Oct-18 11:35 AM
Arrived: 14-Oct-18 12:32 PM
Distance/Time
Traveled:
97nm/0:57
Distance/Time
To Go:
Arrived

Flight Plot

Page will automatically refresh every two minutes.

Flight plan parsing failed; only flown route is shown


Map Options




Map Legend


Flown Route
Filed Route
Departure Airport
Arrival Airport
Navaid (VOR, NDB)
Fix

Horizontal Profiles

Position Reports

Time Latitude Longitude Heading Altitude Ground
Speed
14-Oct-18 11:25 35.035692 -106.619185 138 5307ft 0kts
14-Oct-18 11:26 35.035692 -106.619185 138 5307ft 0kts
14-Oct-18 11:27 35.035692 -106.619185 138 5307ft 0kts
14-Oct-18 11:28 35.035692 -106.619185 138 5307ft 0kts
14-Oct-18 11:29 35.035692 -106.619185 138 5307ft 0kts
14-Oct-18 11:30 35.035692 -106.619185 138 5307ft 0kts
14-Oct-18 11:31 35.034522 -106.618711 142 5309ft 12kts
14-Oct-18 11:32 35.036462 -106.615585 44 5312ft 14kts
14-Oct-18 11:33 35.037740 -106.613673 96 5312ft 1kts
14-Oct-18 11:34 35.037740 -106.613669 94 5312ft 0kts
14-Oct-18 11:35 35.037740 -106.613669 94 5312ft 0kts
14-Oct-18 11:36 35.037577 -106.613384 126 5312ft 6kts
14-Oct-18 11:37 35.027090 -106.625894 223 5668ft 96kts
14-Oct-18 11:38 35.017549 -106.658624 247 7092ft 106kts
14-Oct-18 11:39 35.033277 -106.690333 349 8776ft 122kts
14-Oct-18 11:40 35.061404 -106.697407 347 9939ft 125kts
14-Oct-18 11:41 35.096037 -106.703868 355 9923ft 131kts
14-Oct-18 11:42 35.132311 -106.714086 345 10411ft 141kts
14-Oct-18 11:43 35.172919 -106.724837 350 10973ft 162kts
14-Oct-18 11:44 35.221215 -106.736131 358 10992ft 192kts
14-Oct-18 11:45 35.272077 -106.718044 23 10968ft 192kts
14-Oct-18 11:46 35.321979 -106.696094 23 11056ft 188kts
14-Oct-18 11:47 35.372285 -106.675000 22 10984ft 192kts
14-Oct-18 11:48 35.422654 -106.652765 23 10962ft 191kts
14-Oct-18 11:49 35.472499 -106.631842 23 10987ft 191kts
14-Oct-18 11:50 35.520696 -106.605386 51 10947ft 186kts
14-Oct-18 11:51 35.530975 -106.546324 85 11011ft 175kts
14-Oct-18 11:52 35.536385 -106.486356 91 10970ft 175kts
14-Oct-18 11:53 35.535906 -106.427337 95 10994ft 171kts
14-Oct-18 11:54 35.533393 -106.369503 92 11017ft 169kts
14-Oct-18 11:55 35.534184 -106.312488 92 11041ft 167kts
14-Oct-18 11:56 35.536514 -106.254995 92 10957ft 170kts
14-Oct-18 11:57 35.536886 -106.188368 87 10966ft 170kts
14-Oct-18 11:58 35.538469 -106.140907 90 10932ft 170kts
14-Oct-18 11:59 35.540502 -106.083610 91 10941ft 170kts
14-Oct-18 12:00 35.567950 -106.046767 359 10957ft 187kts
14-Oct-18 12:01 35.618632 -106.055421 9 11065ft 182kts
14-Oct-18 12:02 35.669550 -106.047277 10 10990ft 186kts
14-Oct-18 12:03 35.728927 -106.038732 8 10998ft 186kts
14-Oct-18 12:04 35.772077 -106.032570 8 11005ft 189kts
14-Oct-18 12:05 35.824697 -106.025088 7 11009ft 191kts
14-Oct-18 12:06 35.886493 -106.016362 7 11017ft 193kts
14-Oct-18 12:07 35.930927 -106.010215 6 11020ft 192kts
14-Oct-18 12:08 35.984060 -106.002629 6 11026ft 192kts
14-Oct-18 12:09 36.037067 -105.995084 4 11016ft 193kts
14-Oct-18 12:10 36.090507 -105.987592 4 11034ft 192kts
14-Oct-18 12:11 36.139652 -105.980686 3 11530ft 175kts
14-Oct-18 12:12 36.186782 -105.974143 5 11984ft 168kts
14-Oct-18 12:13 36.234697 -105.967422 4 12001ft 177kts
14-Oct-18 12:14 36.283712 -105.960451 4 11995ft 176kts
14-Oct-18 12:15 36.332418 -105.953525 4 11992ft 176kts
14-Oct-18 12:16 36.380587 -105.941988 8 11992ft 177kts
14-Oct-18 12:17 36.429405 -105.933006 6 11992ft 178kts
14-Oct-18 12:18 36.478330 -105.925451 5 11990ft 175kts
14-Oct-18 12:19 36.526290 -105.918515 4 11991ft 172kts
14-Oct-18 12:20 36.573483 -105.912269 4 11957ft 167kts
14-Oct-18 12:21 36.613942 -105.907648 332 12015ft 127kts
14-Oct-18 12:22 36.632161 -105.939327 292 11907ft 104kts
14-Oct-18 12:23 36.622162 -105.946677 95 11757ft 105kts
14-Oct-18 12:24 36.620636 -105.915990 143 11219ft 98kts
14-Oct-18 12:25 36.602839 -105.889600 139 10375ft 100kts
14-Oct-18 12:26 36.584239 -105.865014 140 9715ft 95kts
14-Oct-18 12:27 36.566568 -105.841334 134 9539ft 92kts
14-Oct-18 12:28 36.550493 -105.818245 143 9827ft 86kts
14-Oct-18 12:29 36.532994 -105.795855 130 10234ft 110kts
14-Oct-18 12:30 36.509769 -105.761087 137 9867ft 144kts
14-Oct-18 12:31 36.484341 -105.724389 134 8916ft 129kts
14-Oct-18 12:32 36.463735 -105.692026 117 7950ft 122kts
14-Oct-18 12:33 36.472500 -105.657477 125 7644ft 95kts
14-Oct-18 12:34 36.460170 -105.668986 293 7076ft 8kts
14-Oct-18 12:35 36.460345 -105.670658 287 7071ft 3kts

Navigation Log

Ident Type
Flight plan parsing failed, navigation log unavailable